sensor_id;sensor_type;location;lat;lon;timestamp;P1;durP1;ratioP1;P2;durP2;ratioP2
59294;SDS011;45067;44.654;20.200;2023-03-01T00:01:23;66.55;;;33.53;;
59294;SDS011;45067;44.654;20.200;2023-03-01T00:03:50;64.07;;;33.65;;
59294;SDS011;45067;44.654;20.200;2023-03-01T00:06:16;69.68;;;34.25;;
59294;SDS011;45067;44.654;20.200;2023-03-01T00:08:42;71.18;;;34.55;;
59294;SDS011;45067;44.654;20.200;2023-03-01T00:11:16;67.68;;;32.42;;
59294;SDS011;45067;44.654;20.200;2023-03-01T00:13:42;66.35;;;34.40;;
59294;SDS011;45067;44.654;20.200;2023-03-01T00:16:10;62.55;;;31.30;;
59294;SDS011;45067;44.654;20.200;2023-03-01T00:18:37;70.68;;;33.13;;
59294;SDS011;45067;44.654;20.200;2023-03-01T00:21:04;71.32;;;33.25;;
59294;SDS011;45067;44.654;20.200;2023-03-01T00:23:30;63.38;;;30.83;;
59294;SDS011;45067;44.654;20.200;2023-03-01T00:25:57;50.58;;;27.80;;
59294;SDS011;45067;44.654;20.200;2023-03-01T00:28:23;56.67;;;28.20;;
59294;SDS011;45067;44.654;20.200;2023-03-01T00:30:49;53.70;;;27.25;;
59294;SDS011;45067;44.654;20.200;2023-03-01T00:33:15;54.42;;;28.27;;
59294;SDS011;45067;44.654;20.200;2023-03-01T00:35:41;53.67;;;26.73;;
59294;SDS011;45067;44.654;20.200;2023-03-01T00:38:07;46.47;;;24.83;;
59294;SDS011;45067;44.654;20.200;2023-03-01T00:40:33;52.88;;;26.40;;
59294;SDS011;45067;44.654;20.200;2023-03-01T00:43:00;51.85;;;26.17;;
59294;SDS011;45067;44.654;20.200;2023-03-01T00:45:26;55.25;;;26.17;;
59294;SDS011;45067;44.654;20.200;2023-03-01T00:47:52;50.72;;;25.73;;
59294;SDS011;45067;44.654;20.200;2023-03-01T00:50:18;42.35;;;21.25;;
59294;SDS011;45067;44.654;20.200;2023-03-01T00:52:45;40.88;;;21.10;;
59294;SDS011;45067;44.654;20.200;2023-03-01T00:55:11;39.85;;;20.05;;
59294;SDS011;45067;44.654;20.200;2023-03-01T00:57:37;36.42;;;18.35;;
59294;SDS011;45067;44.654;20.200;2023-03-01T01:00:04;38.22;;;20.52;;
59294;SDS011;45067;44.654;20.200;2023-03-01T01:02:33;43.75;;;21.85;;
59294;SDS011;45067;44.654;20.200;2023-03-01T01:05:00;40.47;;;21.25;;
59294;SDS011;45067;44.654;20.200;2023-03-01T01:07:26;40.05;;;21.02;;
59294;SDS011;45067;44.654;20.200;2023-03-01T01:09:52;66.85;;;31.60;;
59294;SDS011;45067;44.654;20.200;2023-03-01T01:12:18;74.72;;;33.95;;
59294;SDS011;45067;44.654;20.200;2023-03-01T01:14:44;68.45;;;34.55;;
59294;SDS011;45067;44.654;20.200;2023-03-01T01:17:11;76.18;;;34.15;;
59294;SDS011;45067;44.654;20.200;2023-03-01T01:19:37;73.40;;;35.42;;
59294;SDS011;45067;44.654;20.200;2023-03-01T01:22:03;79.03;;;36.17;;
59294;SDS011;45067;44.654;20.200;2023-03-01T01:24:29;72.03;;;35.05;;
59294;SDS011;45067;44.654;20.200;2023-03-01T01:26:55;81.60;;;34.13;;
59294;SDS011;45067;44.654;20.200;2023-03-01T01:29:21;72.25;;;33.35;;
59294;SDS011;45067;44.654;20.200;2023-03-01T01:31:47;77.65;;;35.03;;
59294;SDS011;45067;44.654;20.200;2023-03-01T01:34:15;78.28;;;35.35;;
59294;SDS011;45067;44.654;20.200;2023-03-01T01:36:41;71.95;;;36.70;;
59294;SDS011;45067;44.654;20.200;2023-03-01T01:39:07;68.38;;;32.88;;
59294;SDS011;45067;44.654;20.200;2023-03-01T01:41:38;69.07;;;31.90;;
59294;SDS011;45067;44.654;20.200;2023-03-01T01:44:12;70.95;;;33.40;;
59294;SDS011;45067;44.654;20.200;2023-03-01T01:46:38;72.65;;;33.85;;
59294;SDS011;45067;44.654;20.200;2023-03-01T01:51:39;92.85;;;34.05;;
59294;SDS011;45067;44.654;20.200;2023-03-01T01:54:08;67.13;;;31.35;;
59294;SDS011;45067;44.654;20.200;2023-03-01T01:56:36;64.50;;;31.23;;
59294;SDS011;45067;44.654;20.200;2023-03-01T01:59:03;74.78;;;33.22;;
59294;SDS011;45067;44.654;20.200;2023-03-01T02:01:30;66.95;;;32.45;;
59294;SDS011;45067;44.654;20.200;2023-03-01T02:03:56;66.55;;;32.47;;
59294;SDS011;45067;44.654;20.200;2023-03-01T02:06:29;69.15;;;31.70;;
59294;SDS011;45067;44.654;20.200;2023-03-01T02:08:57;76.15;;;32.08;;
59294;SDS011;45067;44.654;20.200;2023-03-01T02:11:25;68.80;;;31.40;;
59294;SDS011;45067;44.654;20.200;2023-03-01T02:13:51;76.72;;;32.42;;
59294;SDS011;45067;44.654;20.200;2023-03-01T02:16:17;77.10;;;31.08;;
59294;SDS011;45067;44.654;20.200;2023-03-01T02:18:44;74.20;;;32.97;;
59294;SDS011;45067;44.654;20.200;2023-03-01T02:23:52;68.40;;;31.15;;
59294;SDS011;45067;44.654;20.200;2023-03-01T02:26:24;72.00;;;31.23;;
59294;SDS011;45067;44.654;20.200;2023-03-01T02:28:55;78.90;;;29.38;;
59294;SDS011;45067;44.654;20.200;2023-03-01T02:31:21;67.47;;;30.83;;
59294;SDS011;45067;44.654;20.200;2023-03-01T02:34:06;81.03;;;30.90;;
59294;SDS011;45067;44.654;20.200;2023-03-01T02:36:40;60.63;;;30.40;;
59294;SDS011;45067;44.654;20.200;2023-03-01T02:39:08;71.53;;;29.95;;
59294;SDS011;45067;44.654;20.200;2023-03-01T02:44:05;68.97;;;29.17;;
59294;SDS011;45067;44.654;20.200;2023-03-01T02:46:31;73.55;;;30.80;;
59294;SDS011;45067;44.654;20.200;2023-03-01T02:48:58;64.80;;;30.23;;
59294;SDS011;45067;44.654;20.200;2023-03-01T02:56:19;61.60;;;28.48;;
59294;SDS011;45067;44.654;20.200;2023-03-01T02:58:45;82.80;;;28.80;;
59294;SDS011;45067;44.654;20.200;2023-03-01T03:01:15;64.85;;;29.25;;
59294;SDS011;45067;44.654;20.200;2023-03-01T03:03:42;65.68;;;29.90;;
59294;SDS011;45067;44.654;20.200;2023-03-01T03:06:08;61.53;;;28.67;;
59294;SDS011;45067;44.654;20.200;2023-03-01T03:08:34;64.88;;;28.15;;
59294;SDS011;45067;44.654;20.200;2023-03-01T03:11:00;65.63;;;29.33;;
59294;SDS011;45067;44.654;20.200;2023-03-01T03:13:26;65.10;;;29.38;;
59294;SDS011;45067;44.654;20.200;2023-03-01T03:15:54;69.47;;;29.70;;
59294;SDS011;45067;44.654;20.200;2023-03-01T03:18:20;84.13;;;30.90;;
59294;SDS011;45067;44.654;20.200;2023-03-01T03:20:47;74.93;;;29.63;;
59294;SDS011;45067;44.654;20.200;2023-03-01T03:23:17;68.10;;;30.00;;
59294;SDS011;45067;44.654;20.200;2023-03-01T03:25:44;66.70;;;28.90;;
59294;SDS011;45067;44.654;20.200;2023-03-01T03:28:10;63.63;;;29.55;;
59294;SDS011;45067;44.654;20.200;2023-03-01T03:30:37;66.82;;;28.52;;
59294;SDS011;45067;44.654;20.200;2023-03-01T03:33:06;65.20;;;28.85;;
59294;SDS011;45067;44.654;20.200;2023-03-01T03:35:33;67.13;;;28.25;;
59294;SDS011;45067;44.654;20.200;2023-03-01T03:38:01;68.15;;;27.67;;
59294;SDS011;45067;44.654;20.200;2023-03-01T03:40:28;71.40;;;28.00;;
59294;SDS011;45067;44.654;20.200;2023-03-01T03:42:54;68.20;;;29.77;;
59294;SDS011;45067;44.654;20.200;2023-03-01T03:45:21;62.13;;;28.20;;
59294;SDS011;45067;44.654;20.200;2023-03-01T03:47:47;72.00;;;27.83;;
59294;SDS011;45067;44.654;20.200;2023-03-01T03:50:14;62.25;;;29.88;;
59294;SDS011;45067;44.654;20.200;2023-03-01T03:52:40;63.00;;;28.67;;
59294;SDS011;45067;44.654;20.200;2023-03-01T03:55:07;65.53;;;30.75;;
59294;SDS011;45067;44.654;20.200;2023-03-01T03:57:41;72.15;;;30.38;;
59294;SDS011;45067;44.654;20.200;2023-03-01T04:00:08;64.03;;;27.83;;
59294;SDS011;45067;44.654;20.200;2023-03-01T04:02:46;72.82;;;29.38;;
59294;SDS011;45067;44.654;20.200;2023-03-01T04:05:13;65.15;;;27.20;;
59294;SDS011;45067;44.654;20.200;2023-03-01T04:07:39;102.20;;;29.15;;
59294;SDS011;45067;44.654;20.200;2023-03-01T04:10:06;82.90;;;29.15;;
59294;SDS011;45067;44.654;20.200;2023-03-01T04:12:33;84.57;;;30.65;;
59294;SDS011;45067;44.654;20.200;2023-03-01T04:15:03;74.32;;;27.80;;
59294;SDS011;45067;44.654;20.200;2023-03-01T04:17:45;88.20;;;28.65;;
59294;SDS011;45067;44.654;20.200;2023-03-01T04:20:19;77.35;;;28.40;;
59294;SDS011;45067;44.654;20.200;2023-03-01T04:22:59;82.38;;;26.73;;
59294;SDS011;45067;44.654;20.200;2023-03-01T04:25:56;81.05;;;28.38;;
59294;SDS011;45067;44.654;20.200;2023-03-01T04:28:22;75.05;;;29.30;;
59294;SDS011;45067;44.654;20.200;2023-03-01T04:30:52;86.57;;;28.25;;
59294;SDS011;45067;44.654;20.200;2023-03-01T04:33:18;75.95;;;29.50;;
59294;SDS011;45067;44.654;20.200;2023-03-01T04:35:44;87.13;;;28.75;;
59294;SDS011;45067;44.654;20.200;2023-03-01T04:38:10;76.07;;;28.15;;
59294;SDS011;45067;44.654;20.200;2023-03-01T04:40:36;117.43;;;30.42;;
59294;SDS011;45067;44.654;20.200;2023-03-01T04:43:03;78.82;;;29.42;;
59294;SDS011;45067;44.654;20.200;2023-03-01T04:45:29;97.55;;;28.33;;
59294;SDS011;45067;44.654;20.200;2023-03-01T04:47:55;77.25;;;28.23;;
59294;SDS011;45067;44.654;20.200;2023-03-01T04:50:23;86.55;;;28.52;;
59294;SDS011;45067;44.654;20.200;2023-03-01T04:52:50;152.45;;;31.90;;
59294;SDS011;45067;44.654;20.200;2023-03-01T04:55:16;81.57;;;27.67;;
59294;SDS011;45067;44.654;20.200;2023-03-01T04:57:42;108.40;;;30.30;;
59294;SDS011;45067;44.654;20.200;2023-03-01T05:00:09;92.93;;;28.50;;
59294;SDS011;45067;44.654;20.200;2023-03-01T05:02:46;90.30;;;29.13;;
59294;SDS011;45067;44.654;20.200;2023-03-01T05:05:13;98.28;;;29.83;;
59294;SDS011;45067;44.654;20.200;2023-03-01T05:07:39;95.20;;;28.42;;
59294;SDS011;45067;44.654;20.200;2023-03-01T05:10:05;144.30;;;29.08;;
59294;SDS011;45067;44.654;20.200;2023-03-01T05:12:31;115.93;;;30.23;;
59294;SDS011;45067;44.654;20.200;2023-03-01T05:14:57;111.70;;;27.95;;
59294;SDS011;45067;44.654;20.200;2023-03-01T05:17:23;77.55;;;29.40;;
59294;SDS011;45067;44.654;20.200;2023-03-01T05:19:49;97.30;;;28.33;;
59294;SDS011;45067;44.654;20.200;2023-03-01T05:22:15;84.30;;;28.35;;
59294;SDS011;45067;44.654;20.200;2023-03-01T05:24:41;84.22;;;27.80;;
59294;SDS011;45067;44.654;20.200;2023-03-01T05:27:07;83.85;;;28.17;;
59294;SDS011;45067;44.654;20.200;2023-03-01T05:29:33;68.20;;;26.88;;
59294;SDS011;45067;44.654;20.200;2023-03-01T05:32:00;90.28;;;26.38;;
59294;SDS011;45067;44.654;20.200;2023-03-01T05:34:28;107.93;;;26.52;;
59294;SDS011;45067;44.654;20.200;2023-03-01T05:36:55;71.90;;;25.65;;
59294;SDS011;45067;44.654;20.200;2023-03-01T05:39:25;109.25;;;27.67;;
59294;SDS011;45067;44.654;20.200;2023-03-01T05:41:52;100.15;;;27.50;;
59294;SDS011;45067;44.654;20.200;2023-03-01T05:44:19;81.13;;;26.23;;
59294;SDS011;45067;44.654;20.200;2023-03-01T05:46:45;74.13;;;26.95;;
59294;SDS011;45067;44.654;20.200;2023-03-01T05:49:11;71.65;;;27.63;;
59294;SDS011;45067;44.654;20.200;2023-03-01T05:51:38;81.43;;;26.67;;
59294;SDS011;45067;44.654;20.200;2023-03-01T05:54:04;98.68;;;27.33;;
59294;SDS011;45067;44.654;20.200;2023-03-01T05:56:34;75.60;;;26.60;;
59294;SDS011;45067;44.654;20.200;2023-03-01T05:59:00;113.05;;;28.10;;
59294;SDS011;45067;44.654;20.200;2023-03-01T06:01:26;65.25;;;27.67;;
59294;SDS011;45067;44.654;20.200;2023-03-01T06:03:53;64.28;;;27.08;;
59294;SDS011;45067;44.654;20.200;2023-03-01T06:06:19;67.72;;;27.55;;
59294;SDS011;45067;44.654;20.200;2023-03-01T06:08:45;91.50;;;28.77;;
59294;SDS011;45067;44.654;20.200;2023-03-01T06:11:11;73.45;;;27.08;;
59294;SDS011;45067;44.654;20.200;2023-03-01T06:13:37;89.35;;;28.33;;
59294;SDS011;45067;44.654;20.200;2023-03-01T06:16:06;104.03;;;28.33;;
59294;SDS011;45067;44.654;20.200;2023-03-01T06:18:32;117.00;;;27.45;;
59294;SDS011;45067;44.654;20.200;2023-03-01T06:20:58;104.78;;;30.05;;
59294;SDS011;45067;44.654;20.200;2023-03-01T06:23:24;66.63;;;28.10;;
59294;SDS011;45067;44.654;20.200;2023-03-01T06:25:50;103.82;;;29.20;;
59294;SDS011;45067;44.654;20.200;2023-03-01T06:28:16;83.50;;;27.42;;
59294;SDS011;45067;44.654;20.200;2023-03-01T06:30:43;102.03;;;26.55;;
59294;SDS011;45067;44.654;20.200;2023-03-01T06:33:09;79.43;;;27.10;;
59294;SDS011;45067;44.654;20.200;2023-03-01T06:35:35;80.90;;;29.23;;
59294;SDS011;45067;44.654;20.200;2023-03-01T06:38:01;70.35;;;28.60;;
59294;SDS011;45067;44.654;20.200;2023-03-01T06:40:29;72.80;;;27.92;;
59294;SDS011;45067;44.654;20.200;2023-03-01T06:42:56;74.32;;;27.55;;
59294;SDS011;45067;44.654;20.200;2023-03-01T06:45:22;69.30;;;27.48;;
59294;SDS011;45067;44.654;20.200;2023-03-01T06:47:49;67.05;;;28.67;;
59294;SDS011;45067;44.654;20.200;2023-03-01T06:50:16;64.20;;;27.50;;
59294;SDS011;45067;44.654;20.200;2023-03-01T06:52:42;67.43;;;26.50;;
59294;SDS011;45067;44.654;20.200;2023-03-01T06:55:10;86.25;;;27.98;;
59294;SDS011;45067;44.654;20.200;2023-03-01T06:57:36;64.53;;;27.15;;
59294;SDS011;45067;44.654;20.200;2023-03-01T07:00:05;69.78;;;26.65;;
59294;SDS011;45067;44.654;20.200;2023-03-01T07:02:32;62.70;;;26.70;;
59294;SDS011;45067;44.654;20.200;2023-03-01T07:04:58;45.65;;;22.40;;
59294;SDS011;45067;44.654;20.200;2023-03-01T07:07:24;60.53;;;22.63;;
59294;SDS011;45067;44.654;20.200;2023-03-01T07:09:50;83.10;;;26.65;;
59294;SDS011;45067;44.654;20.200;2023-03-01T07:12:16;82.90;;;26.15;;
59294;SDS011;45067;44.654;20.200;2023-03-01T07:14:43;57.75;;;26.10;;
59294;SDS011;45067;44.654;20.200;2023-03-01T07:17:09;48.80;;;23.20;;
59294;SDS011;45067;44.654;20.200;2023-03-01T07:19:35;57.55;;;25.92;;
59294;SDS011;45067;44.654;20.200;2023-03-01T07:22:02;52.00;;;23.73;;
59294;SDS011;45067;44.654;20.200;2023-03-01T07:24:29;55.22;;;25.58;;
59294;SDS011;45067;44.654;20.200;2023-03-01T07:26:55;59.20;;;26.90;;
59294;SDS011;45067;44.654;20.200;2023-03-01T07:29:21;51.22;;;25.73;;
59294;SDS011;45067;44.654;20.200;2023-03-01T07:31:47;54.13;;;25.65;;
59294;SDS011;45067;44.654;20.200;2023-03-01T07:34:13;50.90;;;24.48;;
59294;SDS011;45067;44.654;20.200;2023-03-01T07:36:39;62.92;;;27.05;;
59294;SDS011;45067;44.654;20.200;2023-03-01T07:39:08;57.10;;;25.80;;
59294;SDS011;45067;44.654;20.200;2023-03-01T07:41:34;58.05;;;27.10;;
59294;SDS011;45067;44.654;20.200;2023-03-01T07:44:00;59.30;;;27.42;;
59294;SDS011;45067;44.654;20.200;2023-03-01T07:46:26;61.88;;;28.27;;
59294;SDS011;45067;44.654;20.200;2023-03-01T07:48:52;59.67;;;27.33;;
59294;SDS011;45067;44.654;20.200;2023-03-01T07:51:18;56.22;;;26.58;;
59294;SDS011;45067;44.654;20.200;2023-03-01T07:53:47;59.85;;;28.13;;
59294;SDS011;45067;44.654;20.200;2023-03-01T07:56:14;59.35;;;28.48;;
59294;SDS011;45067;44.654;20.200;2023-03-01T07:58:42;42.95;;;23.15;;
59294;SDS011;45067;44.654;20.200;2023-03-01T08:01:14;52.25;;;25.75;;
59294;SDS011;45067;44.654;20.200;2023-03-01T08:03:40;48.67;;;24.15;;
59294;SDS011;45067;44.654;20.200;2023-03-01T08:06:08;47.55;;;24.92;;
59294;SDS011;45067;44.654;20.200;2023-03-01T08:08:34;49.85;;;23.73;;
59294;SDS011;45067;44.654;20.200;2023-03-01T08:11:01;51.63;;;25.20;;
59294;SDS011;45067;44.654;20.200;2023-03-01T08:13:27;46.00;;;24.60;;
59294;SDS011;45067;44.654;20.200;2023-03-01T08:15:53;50.97;;;24.95;;
59294;SDS011;45067;44.654;20.200;2023-03-01T08:18:19;46.28;;;24.75;;
59294;SDS011;45067;44.654;20.200;2023-03-01T08:20:46;52.10;;;26.70;;
59294;SDS011;45067;44.654;20.200;2023-03-01T08:23:12;51.35;;;26.42;;
59294;SDS011;45067;44.654;20.200;2023-03-01T08:25:39;53.47;;;29.20;;
59294;SDS011;45067;44.654;20.200;2023-03-01T08:28:05;52.58;;;29.05;;
59294;SDS011;45067;44.654;20.200;2023-03-01T08:30:31;55.08;;;29.70;;
59294;SDS011;45067;44.654;20.200;2023-03-01T08:32:57;60.63;;;31.40;;
59294;SDS011;45067;44.654;20.200;2023-03-01T08:35:23;61.17;;;30.50;;
59294;SDS011;45067;44.654;20.200;2023-03-01T08:37:52;51.65;;;28.33;;
59294;SDS011;45067;44.654;20.200;2023-03-01T08:40:18;54.30;;;29.80;;
59294;SDS011;45067;44.654;20.200;2023-03-01T08:42:44;58.38;;;31.67;;
59294;SDS011;45067;44.654;20.200;2023-03-01T08:45:11;52.92;;;29.17;;
59294;SDS011;45067;44.654;20.200;2023-03-01T08:47:39;56.22;;;27.48;;
59294;SDS011;45067;44.654;20.200;2023-03-01T08:50:05;55.35;;;27.27;;
59294;SDS011;45067;44.654;20.200;2023-03-01T08:52:32;54.13;;;28.25;;
59294;SDS011;45067;44.654;20.200;2023-03-01T08:54:58;50.13;;;26.30;;
59294;SDS011;45067;44.654;20.200;2023-03-01T08:57:26;50.55;;;27.80;;
59294;SDS011;45067;44.654;20.200;2023-03-01T08:59:52;51.97;;;28.55;;
59294;SDS011;45067;44.654;20.200;2023-03-01T09:02:21;50.65;;;27.98;;
59294;SDS011;45067;44.654;20.200;2023-03-01T09:04:47;51.47;;;28.33;;
59294;SDS011;45067;44.654;20.200;2023-03-01T09:07:13;54.05;;;29.33;;
59294;SDS011;45067;44.654;20.200;2023-03-01T09:09:39;54.40;;;29.55;;
59294;SDS011;45067;44.654;20.200;2023-03-01T09:12:05;54.47;;;27.95;;
59294;SDS011;45067;44.654;20.200;2023-03-01T09:14:31;60.00;;;30.05;;
59294;SDS011;45067;44.654;20.200;2023-03-01T09:16:57;55.08;;;30.38;;
59294;SDS011;45067;44.654;20.200;2023-03-01T09:19:23;58.58;;;31.33;;
59294;SDS011;45067;44.654;20.200;2023-03-01T09:21:49;57.05;;;30.70;;
59294;SDS011;45067;44.654;20.200;2023-03-01T09:24:19;55.97;;;30.90;;
59294;SDS011;45067;44.654;20.200;2023-03-01T09:26:46;59.38;;;32.35;;
59294;SDS011;45067;44.654;20.200;2023-03-01T09:29:12;59.58;;;32.40;;
59294;SDS011;45067;44.654;20.200;2023-03-01T09:31:39;59.63;;;31.73;;
59294;SDS011;45067;44.654;20.200;2023-03-01T09:34:05;61.50;;;32.17;;
59294;SDS011;45067;44.654;20.200;2023-03-01T09:36:32;63.78;;;34.50;;
59294;SDS011;45067;44.654;20.200;2023-03-01T09:38:58;65.47;;;36.33;;
59294;SDS011;45067;44.654;20.200;2023-03-01T09:44:01;79.25;;;42.88;;
59294;SDS011;45067;44.654;20.200;2023-03-01T09:46:29;80.57;;;43.45;;
59294;SDS011;45067;44.654;20.200;2023-03-01T09:48:59;79.32;;;43.17;;
59294;SDS011;45067;44.654;20.200;2023-03-01T09:51:31;82.20;;;43.42;;
59294;SDS011;45067;44.654;20.200;2023-03-01T09:53:58;75.22;;;43.45;;
59294;SDS011;45067;44.654;20.200;2023-03-01T09:56:39;68.07;;;37.80;;
59294;SDS011;45067;44.654;20.200;2023-03-01T09:59:21;64.05;;;38.83;;
59294;SDS011;45067;44.654;20.200;2023-03-01T10:04:32;67.95;;;39.72;;
59294;SDS011;45067;44.654;20.200;2023-03-01T10:09:39;67.53;;;38.00;;
59294;SDS011;45067;44.654;20.200;2023-03-01T10:12:10;68.38;;;40.08;;
59294;SDS011;45067;44.654;20.200;2023-03-01T10:14:38;70.88;;;39.58;;
59294;SDS011;45067;44.654;20.200;2023-03-01T10:19:36;67.38;;;37.42;;
59294;SDS011;45067;44.654;20.200;2023-03-01T10:24:31;65.30;;;38.42;;
59294;SDS011;45067;44.654;20.200;2023-03-01T10:27:01;65.43;;;36.28;;
59294;SDS011;45067;44.654;20.200;2023-03-01T10:29:30;58.20;;;35.13;;
59294;SDS011;45067;44.654;20.200;2023-03-01T10:31:57;57.03;;;33.53;;
59294;SDS011;45067;44.654;20.200;2023-03-01T10:34:27;56.10;;;34.92;;
59294;SDS011;45067;44.654;20.200;2023-03-01T10:39:20;55.80;;;33.95;;
59294;SDS011;45067;44.654;20.200;2023-03-01T10:41:57;47.45;;;28.52;;
59294;SDS011;45067;44.654;20.200;2023-03-01T10:47:08;46.63;;;28.75;;
59294;SDS011;45067;44.654;20.200;2023-03-01T10:49:38;45.65;;;28.23;;
59294;SDS011;45067;44.654;20.200;2023-03-01T10:52:21;48.25;;;29.83;;
59294;SDS011;45067;44.654;20.200;2023-03-01T10:54:54;47.00;;;29.55;;
59294;SDS011;45067;44.654;20.200;2023-03-01T10:57:28;60.42;;;35.78;;
59294;SDS011;45067;44.654;20.200;2023-03-01T11:00:13;59.83;;;35.92;;
59294;SDS011;45067;44.654;20.200;2023-03-01T11:02:50;61.08;;;35.88;;
59294;SDS011;45067;44.654;20.200;2023-03-01T11:05:18;58.33;;;35.40;;
59294;SDS011;45067;44.654;20.200;2023-03-01T11:10:18;57.10;;;34.03;;
59294;SDS011;45067;44.654;20.200;2023-03-01T11:12:44;64.57;;;35.17;;
59294;SDS011;45067;44.654;20.200;2023-03-01T11:15:26;71.38;;;41.33;;
59294;SDS011;45067;44.654;20.200;2023-03-01T11:17:54;72.80;;;42.70;;
59294;SDS011;45067;44.654;20.200;2023-03-01T11:20:24;76.25;;;43.83;;
59294;SDS011;45067;44.654;20.200;2023-03-01T11:22:55;69.55;;;40.95;;
59294;SDS011;45067;44.654;20.200;2023-03-01T11:25:28;70.20;;;41.75;;
59294;SDS011;45067;44.654;20.200;2023-03-01T11:27:55;66.65;;;39.03;;
59294;SDS011;45067;44.654;20.200;2023-03-01T11:35:49;69.43;;;38.33;;
59294;SDS011;45067;44.654;20.200;2023-03-01T11:38:25;62.05;;;36.78;;
59294;SDS011;45067;44.654;20.200;2023-03-01T11:40:52;61.65;;;35.30;;
59294;SDS011;45067;44.654;20.200;2023-03-01T11:43:28;59.72;;;34.97;;
59294;SDS011;45067;44.654;20.200;2023-03-01T11:45:59;59.30;;;34.65;;
59294;SDS011;45067;44.654;20.200;2023-03-01T11:50:56;57.72;;;35.28;;
59294;SDS011;45067;44.654;20.200;2023-03-01T12:01:13;54.83;;;33.13;;
59294;SDS011;45067;44.654;20.200;2023-03-01T12:14:17;49.63;;;28.92;;
59294;SDS011;45067;44.654;20.200;2023-03-01T12:21:55;53.90;;;31.33;;
59294;SDS011;45067;44.654;20.200;2023-03-01T12:24:29;43.40;;;27.27;;
59294;SDS011;45067;44.654;20.200;2023-03-01T12:37:46;44.58;;;26.17;;
59294;SDS011;45067;44.654;20.200;2023-03-01T12:50:46;44.58;;;27.27;;
59294;SDS011;45067;44.654;20.200;2023-03-01T12:55:48;44.55;;;25.35;;
59294;SDS011;45067;44.654;20.200;2023-03-01T13:00:54;45.95;;;27.15;;
59294;SDS011;45067;44.654;20.200;2023-03-01T13:03:29;46.80;;;25.50;;
59294;SDS011;45067;44.654;20.200;2023-03-01T13:11:42;43.08;;;26.52;;
59294;SDS011;45067;44.654;20.200;2023-03-01T13:16:48;35.03;;;22.20;;
59294;SDS011;45067;44.654;20.200;2023-03-01T13:19:18;31.02;;;18.77;;
59294;SDS011;45067;44.654;20.200;2023-03-01T13:21:45;33.25;;;19.63;;
59294;SDS011;45067;44.654;20.200;2023-03-01T13:24:28;32.75;;;20.40;;
59294;SDS011;45067;44.654;20.200;2023-03-01T13:29:46;15.30;;;8.68;;
59294;SDS011;45067;44.654;20.200;2023-03-01T13:34:51;16.30;;;8.90;;
59294;SDS011;45067;44.654;20.200;2023-03-01T13:37:22;15.75;;;9.00;;
59294;SDS011;45067;44.654;20.200;2023-03-01T13:39:50;14.60;;;8.88;;
59294;SDS011;45067;44.654;20.200;2023-03-01T13:42:40;11.82;;;7.97;;
59294;SDS011;45067;44.654;20.200;2023-03-01T13:45:17;9.80;;;6.07;;
59294;SDS011;45067;44.654;20.200;2023-03-01T13:47:45;11.38;;;5.50;;
59294;SDS011;45067;44.654;20.200;2023-03-01T13:50:18;14.50;;;8.73;;
59294;SDS011;45067;44.654;20.200;2023-03-01T13:57:40;11.23;;;7.05;;
59294;SDS011;45067;44.654;20.200;2023-03-01T14:00:24;17.88;;;9.00;;
59294;SDS011;45067;44.654;20.200;2023-03-01T14:03:03;14.05;;;8.18;;
59294;SDS011;45067;44.654;20.200;2023-03-01T14:05:30;14.32;;;7.38;;
59294;SDS011;45067;44.654;20.200;2023-03-01T14:07:56;11.23;;;7.03;;
59294;SDS011;45067;44.654;20.200;2023-03-01T14:10:22;14.65;;;7.70;;
59294;SDS011;45067;44.654;20.200;2023-03-01T14:13:04;14.80;;;8.63;;
59294;SDS011;45067;44.654;20.200;2023-03-01T14:15:42;14.93;;;8.30;;
59294;SDS011;45067;44.654;20.200;2023-03-01T14:18:20;19.25;;;7.43;;
59294;SDS011;45067;44.654;20.200;2023-03-01T14:20:48;11.55;;;7.50;;
59294;SDS011;45067;44.654;20.200;2023-03-01T14:23:20;14.85;;;5.90;;
59294;SDS011;45067;44.654;20.200;2023-03-01T14:25:56;10.57;;;6.50;;
59294;SDS011;45067;44.654;20.200;2023-03-01T14:28:23;10.88;;;6.30;;
59294;SDS011;45067;44.654;20.200;2023-03-01T14:30:51;12.35;;;6.63;;
59294;SDS011;45067;44.654;20.200;2023-03-01T14:33:26;10.80;;;6.70;;
59294;SDS011;45067;44.654;20.200;2023-03-01T14:36:13;11.93;;;6.25;;
59294;SDS011;45067;44.654;20.200;2023-03-01T14:38:46;14.98;;;8.80;;
59294;SDS011;45067;44.654;20.200;2023-03-01T14:41:15;13.38;;;7.75;;
59294;SDS011;45067;44.654;20.200;2023-03-01T14:43:46;13.93;;;8.77;;
59294;SDS011;45067;44.654;20.200;2023-03-01T14:49:06;10.80;;;6.32;;
59294;SDS011;45067;44.654;20.200;2023-03-01T14:51:39;14.95;;;6.30;;
59294;SDS011;45067;44.654;20.200;2023-03-01T14:54:15;13.45;;;6.38;;
59294;SDS011;45067;44.654;20.200;2023-03-01T14:56:45;10.65;;;5.40;;
59294;SDS011;45067;44.654;20.200;2023-03-01T14:59:11;11.32;;;5.53;;
59294;SDS011;45067;44.654;20.200;2023-03-01T15:01:38;11.15;;;5.53;;
59294;SDS011;45067;44.654;20.200;2023-03-01T15:04:06;11.90;;;6.50;;
59294;SDS011;45067;44.654;20.200;2023-03-01T15:06:33;11.20;;;7.05;;
59294;SDS011;45067;44.654;20.200;2023-03-01T15:08:59;10.20;;;6.45;;
59294;SDS011;45067;44.654;20.200;2023-03-01T15:11:29;11.70;;;6.47;;
59294;SDS011;45067;44.654;20.200;2023-03-01T15:13:55;10.40;;;6.88;;
59294;SDS011;45067;44.654;20.200;2023-03-01T15:16:23;12.32;;;7.43;;
59294;SDS011;45067;44.654;20.200;2023-03-01T15:18:50;12.10;;;6.95;;
59294;SDS011;45067;44.654;20.200;2023-03-01T15:21:26;10.88;;;6.82;;
59294;SDS011;45067;44.654;20.200;2023-03-01T15:23:55;13.43;;;6.88;;
59294;SDS011;45067;44.654;20.200;2023-03-01T15:26:30;13.63;;;7.32;;
59294;SDS011;45067;44.654;20.200;2023-03-01T15:28:57;12.20;;;7.70;;
59294;SDS011;45067;44.654;20.200;2023-03-01T15:31:24;13.00;;;7.63;;
59294;SDS011;45067;44.654;20.200;2023-03-01T15:33:51;12.27;;;7.68;;
59294;SDS011;45067;44.654;20.200;2023-03-01T15:38:58;14.65;;;8.60;;
59294;SDS011;45067;44.654;20.200;2023-03-01T15:43:51;13.68;;;8.02;;
59294;SDS011;45067;44.654;20.200;2023-03-01T15:48:54;14.68;;;7.95;;
59294;SDS011;45067;44.654;20.200;2023-03-01T15:51:42;13.65;;;7.78;;
59294;SDS011;45067;44.654;20.200;2023-03-01T15:54:25;14.52;;;7.70;;
59294;SDS011;45067;44.654;20.200;2023-03-01T15:56:52;15.15;;;8.80;;
59294;SDS011;45067;44.654;20.200;2023-03-01T15:59:18;13.95;;;8.85;;
59294;SDS011;45067;44.654;20.200;2023-03-01T16:01:45;15.13;;;9.68;;
59294;SDS011;45067;44.654;20.200;2023-03-01T16:04:14;18.40;;;11.05;;
59294;SDS011;45067;44.654;20.200;2023-03-01T16:06:46;17.48;;;10.45;;
59294;SDS011;45067;44.654;20.200;2023-03-01T16:09:20;18.50;;;11.70;;
59294;SDS011;45067;44.654;20.200;2023-03-01T16:11:46;16.52;;;10.90;;
59294;SDS011;45067;44.654;20.200;2023-03-01T16:14:12;12.85;;;8.02;;
59294;SDS011;45067;44.654;20.200;2023-03-01T16:16:39;11.02;;;7.40;;
59294;SDS011;45067;44.654;20.200;2023-03-01T16:19:05;13.88;;;8.65;;